Etusivu
METAR-TAF:

METAR-TAF

Lentoasemat :

Palacios Municipal Airport

Palacios, Texas, Yhdysvallat

Leveyspiiri: 28-43-39N, Pituuspiiri: 096-15-03W, korkeus merenpinnasta: 5 m

Tämänhetkinen sää

Tämä raportti tehtiin 59 minuuttia sitten, kello 16.53 UTC
Tuuli 7 kn etelästä
Lämpötila 32°C
Kosteus 59%
Ilmanpaine 1018 hPa
Näkyvyys: 16.1 km
Muutamia pilviä 10000 ft:n korkeudessa

METAR: KPSX 071653Z AUTO 17007KT 10SM FEW100 32/23 A3005 RMK AO2 SLP175 T03220233

Aika: 12:52 (17:52 UTC)


TAF: puuttuu

Säähavainnot ja -ennusteet yli 4000 lentoasemalta (METAR- ja TAF-raportit).

Käytössä olevat sääasemat on merkitty karttaan keltaisilla ja punaisilla pisteillä.

Aseta hiiri pisteen päälle nähdäksesi sääaseman nimen.

Klikkaa sitten nähdäksesi säähavainnot ja -ennusteet.

Kartan vaihtaminen: klikkaa mustalla rastilla varustettuja vihreitä pisteitä, niin voit zoomata sisään; viivalla varustettua vihreää pistettä, niin voit zoomata ulos tai vihreitä nuolia, niin pääset viereisille kartoille.


METAR-TAF: